Terminal Aerodrome Forecast
Issued by NWS

Home | Current Version | Previous Version | Text Only | Print | Product List | Glossary On
Versions: 1 2 3 4 5 6 7 8 9 10 11 12 13 14
000
FTUS43 KIND 250526
TAFBMG
TAF
KBMG 250526Z 2506/2606 30009KT P6SM VCSH OVC008
     FM251100 31009KT P6SM VCSH OVC005
     FM251300 31009KT P6SM VCSH OVC005
     FM251700 30009KT P6SM OVC015
     FM252300 29007KT P6SM BKN035
     FM260100 28005KT P6SM BKN045
     FM260200 27005KT P6SM SCT060
      AMD LTD TO CLD VIS AND WIND TIL 251300=

USA.gov is the U.S. government's official web portal to all federal, state and local government web resources and services.